Time;durP1;ratioP1;P1;durP2;ratioP2;P2;SDS_P1;SDS_P2;PMS_P1;PMS_P2;Temp;Humidity;BMP_temperature;BMP_pressure;BME280_temperature;BME280_humidity;BME280_pressure;Samples;Min_cycle;Max_cycle;Signal;HPM_P1;HPM_P2
2024/02/01 00:00:52;;;;;;;;;;;;;;;0.41;84.04;100942.94;137138;1276;22411;-76
2024/02/01 00:03:53;;;;;;;;;;;;;;;0.40;84.17;100936.23;136981;1276;22377;-76
2024/02/01 00:06:53;;;;;;;;;;;;;;;0.39;84.04;100927.93;137169;1276;22385;-76
2024/02/01 00:09:54;;;;;;;;;;;;;;;0.39;84.22;100923.38;137207;1275;22384;-76
2024/02/01 00:12:54;;;;;;;;;;;;;;;0.41;84.09;100918.60;137172;1276;23466;-76
2024/02/01 00:15:55;;;;;;;;;;;;;;;0.48;84.05;100928.70;137156;1276;22409;-76
2024/02/01 00:18:56;;;;;;;;;;;;;;;0.48;83.78;100926.79;137156;1276;22833;-76
2024/02/01 00:21:56;;;;;;;;;;;;;;;0.45;83.80;100918.02;137165;1276;22393;-76
2024/02/01 00:24:57;;;;;;;;;;;;;;;0.46;83.64;100917.65;137154;1272;22371;-76
2024/02/01 00:27:57;;;;;;;;;;;;;;;0.49;83.66;100913.99;137201;1276;22393;-77
2024/02/01 00:30:58;;;;;;;;;;;;;;;0.52;83.54;100907.91;137120;1276;22568;-77
2024/02/01 00:34:04;;;;;;;;;;;;;;;0.50;83.31;100910.50;137157;1276;22364;-77
2024/02/01 00:37:05;;;;;;;;;;;;;;;0.40;83.32;100906.80;137220;1276;22401;-76
2024/02/01 00:40:06;;;;;;;;;;;;;;;0.31;83.26;100901.03;137136;1276;22549;-76
2024/02/01 00:43:08;;;;;;;;;;;;;;;0.26;83.23;100894.33;136940;1276;22430;-76
2024/02/01 00:46:09;;;;;;;;;;;;;;;0.15;82.90;100879.27;137158;1276;22376;-76
2024/02/01 00:49:09;;;;;;;;;;;;;;;-0.03;82.69;100872.88;137013;1276;23091;-76
2024/02/01 00:52:10;;;;;;;;;;;;;;;-0.12;83.15;100865.17;137151;1273;22378;-76
2024/02/01 00:55:10;;;;;;;;;;;;;;;-0.12;83.30;100863.84;137181;1276;22392;-76
2024/02/01 00:58:11;;;;;;;;;;;;;;;-0.11;83.38;100862.89;137191;1276;23246;-76
2024/02/01 01:01:12;;;;;;;;;;;;;;;-0.10;83.42;100874.67;137157;1276;23071;-76
2024/02/01 01:04:15;;;;;;;;;;;;;;;-0.13;83.06;100886.80;137159;1276;23519;-76
2024/02/01 01:07:16;;;;;;;;;;;;;;;-0.21;82.68;100895.94;137180;1276;22455;-77
2024/02/01 01:10:16;;;;;;;;;;;;;;;-0.23;82.75;100897.60;137160;1273;23058;-76
2024/02/01 01:13:20;;;;;;;;;;;;;;;-0.26;82.76;100892.02;137171;1276;22462;-77
2024/02/01 01:16:20;;;;;;;;;;;;;;;-0.30;82.70;100887.02;137186;1277;23423;-77
2024/02/01 01:19:21;;;;;;;;;;;;;;;-0.38;82.68;100882.38;137107;1276;23159;-77
2024/02/01 01:22:21;;;;;;;;;;;;;;;-0.44;82.59;100875.55;137147;1276;22394;-77
2024/02/01 01:25:22;;;;;;;;;;;;;;;-0.49;82.48;100866.56;137114;1273;23132;-77
2024/02/01 01:28:22;;;;;;;;;;;;;;;-0.53;82.32;100858.64;137164;1276;23229;-77
2024/02/01 01:31:23;;;;;;;;;;;;;;;-0.66;82.25;100863.42;137167;1276;23394;-77
2024/02/01 01:34:23;;;;;;;;;;;;;;;-0.76;82.59;100863.74;137141;1276;23227;-77
2024/02/01 01:37:24;;;;;;;;;;;;;;;-0.81;83.18;100856.55;137123;1276;23158;-77
2024/02/01 01:40:25;;;;;;;;;;;;;;;-0.89;83.23;100857.65;137114;1273;22347;-77
2024/02/01 01:43:26;;;;;;;;;;;;;;;-0.96;83.56;100863.69;137134;1276;22392;-77
2024/02/01 01:46:27;;;;;;;;;;;;;;;-0.99;83.45;100860.54;137166;1276;23172;-76
2024/02/01 01:49:27;;;;;;;;;;;;;;;-1.02;83.59;100852.50;137153;1276;23042;-77
2024/02/01 01:52:28;;;;;;;;;;;;;;;-1.00;83.71;100856.75;137151;1276;23233;-76
2024/02/01 01:55:29;;;;;;;;;;;;;;;-1.00;83.46;100850.35;137110;1276;22465;-77
2024/02/01 01:58:35;;;;;;;;;;;;;;;-1.00;83.54;100840.10;137146;1276;22438;-76
2024/02/01 02:01:39;;;;;;;;;;;;;;;-0.98;83.82;100825.26;137169;1276;22450;-76
2024/02/01 02:04:42;;;;;;;;;;;;;;;-0.99;83.73;100822.87;136968;1276;23085;-76
2024/02/01 02:07:45;;;;;;;;;;;;;;;-0.94;84.07;100820.02;137139;1276;22414;-76
2024/02/01 02:10:47;;;;;;;;;;;;;;;-0.93;83.77;100818.20;137117;1276;22531;-77
2024/02/01 02:13:48;;;;;;;;;;;;;;;-0.99;83.56;100813.98;137176;1276;23461;-76
2024/02/01 02:16:48;;;;;;;;;;;;;;;-1.04;83.82;100812.49;137114;1276;23169;-76
2024/02/01 02:19:49;;;;;;;;;;;;;;;-1.06;83.57;100805.64;137144;1276;22402;-77
2024/02/01 02:22:51;;;;;;;;;;;;;;;-1.06;83.67;100798.73;137131;1276;22363;-76
2024/02/01 02:25:52;;;;;;;;;;;;;;;-1.10;83.55;100794.91;137129;1273;22413;-77
2024/02/01 02:28:52;;;;;;;;;;;;;;;-1.14;83.59;100789.39;137124;1276;23228;-77
2024/02/01 02:31:53;;;;;;;;;;;;;;;-1.19;83.42;100785.11;137133;1276;23209;-77
2024/02/01 02:34:54;;;;;;;;;;;;;;;-1.23;83.68;100780.98;137113;1276;22446;-77
2024/02/01 02:37:54;;;;;;;;;;;;;;;-1.27;83.84;100772.16;137152;1270;22397;-77
2024/02/01 02:40:55;;;;;;;;;;;;;;;-1.27;84.15;100770.43;137121;1276;22520;-77
2024/02/01 02:43:56;;;;;;;;;;;;;;;-1.27;84.45;100772.48;137153;1276;22386;-76
2024/02/01 02:46:57;;;;;;;;;;;;;;;-1.26;84.17;100768.80;137136;1276;22370;-76
2024/02/01 02:49:57;;;;;;;;;;;;;;;-1.26;84.02;100768.31;137155;1276;22404;-76
2024/02/01 02:52:58;;;;;;;;;;;;;;;-1.27;84.11;100764.85;137141;1276;23212;-76
2024/02/01 02:55:58;;;;;;;;;;;;;;;-1.27;84.21;100759.17;137135;1276;22397;-76
2024/02/01 02:58:59;;;;;;;;;;;;;;;-1.30;84.05;100760.33;137102;1276;22419;-76
2024/02/01 03:02:00;;;;;;;;;;;;;;;-1.29;84.36;100763.42;137141;1276;22391;-76
2024/02/01 03:05:01;;;;;;;;;;;;;;;-1.28;84.40;100759.89;137128;1276;22364;-76
2024/02/01 03:08:04;;;;;;;;;;;;;;;-1.26;84.41;100752.33;137069;1276;22403;-75
2024/02/01 03:11:10;;;;;;;;;;;;;;;-1.24;84.70;100761.04;137132;1276;22386;-76
2024/02/01 03:14:11;;;;;;;;;;;;;;;-1.16;84.81;100757.91;137190;1273;22773;-76
2024/02/01 03:17:11;;;;;;;;;;;;;;;-1.09;84.84;100753.55;137167;1276;22374;-76
2024/02/01 03:20:17;;;;;;;;;;;;;;;-1.08;84.36;100749.84;137113;1270;22364;-76
2024/02/01 03:23:18;;;;;;;;;;;;;;;-1.12;84.61;100747.45;137146;1276;22318;-76
2024/02/01 03:26:18;;;;;;;;;;;;;;;-1.10;84.39;100736.76;137127;1276;22404;-75
2024/02/01 03:29:19;;;;;;;;;;;;;;;-1.11;84.36;100740.47;137096;1276;22390;-76
2024/02/01 03:32:19;;;;;;;;;;;;;;;-1.08;84.56;100734.08;137045;1276;22412;-76
2024/02/01 03:35:20;;;;;;;;;;;;;;;-1.08;84.68;100736.13;137031;1275;22385;-76
2024/02/01 03:38:21;;;;;;;;;;;;;;;-1.05;84.93;100739.62;137145;1276;22424;-76
2024/02/01 03:41:22;;;;;;;;;;;;;;;-1.05;84.97;100731.98;137157;1273;22404;-76
2024/02/01 03:44:23;;;;;;;;;;;;;;;-1.02;85.19;100721.22;137105;1276;22367;-75
2024/02/01 03:47:24;;;;;;;;;;;;;;;-0.96;85.71;100717.45;137171;1276;22394;-75
2024/02/01 03:50:24;;;;;;;;;;;;;;;-0.88;86.08;100709.27;137131;1276;22429;-76
2024/02/01 03:53:25;;;;;;;;;;;;;;;-0.80;86.16;100706.40;137123;1276;22532;-75
2024/02/01 03:56:26;;;;;;;;;;;;;;;-0.72;86.15;100705.46;137110;1276;22398;-76
2024/02/01 03:59:27;;;;;;;;;;;;;;;-0.65;86.46;100698.86;137007;1276;22488;-75
2024/02/01 04:02:31;;;;;;;;;;;;;;;-0.57;86.64;100694.23;137111;1276;22388;-77
2024/02/01 04:05:36;;;;;;;;;;;;;;;-0.50;86.55;100694.91;137016;1276;22480;-75
2024/02/01 04:08:39;;;;;;;;;;;;;;;-0.44;86.35;100688.86;137024;1276;22320;-75
2024/02/01 04:11:39;;;;;;;;;;;;;;;-0.37;86.47;100690.22;137120;1270;22426;-75
2024/02/01 04:14:40;;;;;;;;;;;;;;;-0.26;86.68;100690.83;137151;1276;22396;-75
2024/02/01 04:17:41;;;;;;;;;;;;;;;-0.12;86.71;100690.42;137109;1276;22405;-76
2024/02/01 04:20:42;;;;;;;;;;;;;;;0.02;86.83;100693.83;137157;1276;22386;-76
2024/02/01 04:23:42;;;;;;;;;;;;;;;0.11;86.72;100683.04;136994;1276;22379;-76
2024/02/01 04:26:43;;;;;;;;;;;;;;;0.18;86.80;100677.10;137130;1276;22458;-76
2024/02/01 04:29:43;;;;;;;;;;;;;;;0.27;86.97;100679.74;137122;1276;22380;-75
2024/02/01 04:32:45;;;;;;;;;;;;;;;0.29;86.56;100679.79;137112;1276;22378;-76
2024/02/01 04:35:46;;;;;;;;;;;;;;;0.28;86.51;100682.27;137111;1276;22473;-76
2024/02/01 04:38:49;;;;;;;;;;;;;;;0.29;86.71;100682.75;137138;1276;22399;-75
2024/02/01 04:41:53;;;;;;;;;;;;;;;0.31;87.01;100678.08;137045;1276;22386;-77
2024/02/01 04:44:57;;;;;;;;;;;;;;;0.33;87.10;100673.63;137112;1276;22542;-76
2024/02/01 04:47:58;;;;;;;;;;;;;;;0.36;87.30;100676.39;137077;1276;22511;-76
2024/02/01 04:50:59;;;;;;;;;;;;;;;0.42;87.47;100673.61;137172;1276;22385;-75
2024/02/01 04:53:59;;;;;;;;;;;;;;;0.48;87.53;100672.06;137084;1276;22411;-76
2024/02/01 04:57:02;;;;;;;;;;;;;;;0.54;87.82;100669.30;137191;1276;22473;-76
2024/02/01 05:00:13;;;;;;;;;;;;;;;0.59;87.85;100662.05;137126;1276;22414;-76
2024/02/01 05:03:15;;;;;;;;;;;;;;;0.64;87.93;100657.75;137055;1276;22304;-76
2024/02/01 05:06:19;;;;;;;;;;;;;;;0.71;88.04;100652.47;137076;1276;22379;-76
2024/02/01 05:09:26;;;;;;;;;;;;;;;0.81;88.23;100655.54;137126;1276;23101;-75
2024/02/01 05:12:26;;;;;;;;;;;;;;;0.93;88.39;100656.19;137106;1270;22266;-75
2024/02/01 05:15:27;;;;;;;;;;;;;;;1.03;88.33;100658.23;137091;1276;22371;-76
2024/02/01 05:18:28;;;;;;;;;;;;;;;1.13;88.52;100654.30;137119;1276;22392;-76
2024/02/01 05:21:32;;;;;;;;;;;;;;;1.26;88.59;100655.02;137092;1276;22391;-76
2024/02/01 05:24:37;;;;;;;;;;;;;;;1.38;88.56;100652.25;137093;1276;22400;-75
2024/02/01 05:27:37;;;;;;;;;;;;;;;1.49;88.40;100646.30;137012;1276;22391;-75
2024/02/01 05:30:44;;;;;;;;;;;;;;;1.60;88.33;100644.96;137078;1276;22413;-76
2024/02/01 05:33:45;;;;;;;;;;;;;;;1.69;88.14;100640.04;136978;1276;22424;-75
2024/02/01 05:36:47;;;;;;;;;;;;;;;1.77;88.13;100635.50;137124;1276;22989;-75
2024/02/01 05:39:50;;;;;;;;;;;;;;;1.83;88.22;100640.55;137080;1276;22371;-76
2024/02/01 05:42:50;;;;;;;;;;;;;;;1.90;88.17;100640.77;137091;1270;22414;-76
2024/02/01 05:45:51;;;;;;;;;;;;;;;2.01;88.39;100645.64;137088;1276;22382;-76
2024/02/01 05:49:01;;;;;;;;;;;;;;;2.10;88.51;100649.05;137027;1276;22258;-77
2024/02/01 05:52:03;;;;;;;;;;;;;;;2.17;88.10;100648.99;137149;1276;23250;-78
2024/02/01 05:55:07;;;;;;;;;;;;;;;2.25;88.23;100646.02;136988;1276;22454;-78
2024/02/01 05:58:10;;;;;;;;;;;;;;;2.31;88.01;100649.11;137099;1276;22405;-82
2024/02/01 06:01:33;;;;;;;;;;;;;;;2.36;87.86;100648.09;137063;1276;22426;-75
2024/02/01 06:04:54;;;;;;;;;;;;;;;2.40;87.70;100644.48;137116;1276;22464;-74
2024/02/01 06:07:55;;;;;;;;;;;;;;;2.45;87.67;100646.07;137078;1276;22407;-76
2024/02/01 06:10:55;;;;;;;;;;;;;;;2.51;87.76;100633.98;137095;1276;22392;-74
2024/02/01 06:13:56;;;;;;;;;;;;;;;2.57;87.60;100630.10;137096;1275;22405;-74
2024/02/01 06:16:56;;;;;;;;;;;;;;;2.66;87.41;100635.42;137107;1276;22466;-76
2024/02/01 06:19:57;;;;;;;;;;;;;;;2.74;87.47;100634.73;137059;1276;22390;-76
2024/02/01 06:23:02;;;;;;;;;;;;;;;2.81;87.06;100634.60;137073;1276;22383;-76
2024/02/01 06:26:05;;;;;;;;;;;;;;;2.86;87.15;100637.07;137119;1276;22428;-76
2024/02/01 06:29:08;;;;;;;;;;;;;;;2.91;87.06;100639.52;137104;1276;22406;-75
2024/02/01 06:32:19;;;;;;;;;;;;;;;2.95;87.31;100645.14;136963;1276;23056;-75
2024/02/01 06:35:22;;;;;;;;;;;;;;;2.97;87.10;100652.90;137050;1276;23297;-76
2024/02/01 06:38:45;;;;;;;;;;;;;;;2.98;87.18;100658.41;137121;1276;22420;-75
2024/02/01 06:42:01;;;;;;;;;;;;;;;2.96;87.15;100658.36;137110;1276;22961;-75
2024/02/01 06:48:41;;;;;;;;;;;;;;;2.93;88.09;100665.06;136386;1284;22456;-76
2024/02/01 06:51:43;;;;;;;;;;;;;;;2.91;88.50;100660.25;136390;1282;22382;-76
2024/02/01 06:54:53;;;;;;;;;;;;;;;2.91;88.61;100665.73;137095;1276;23293;-76
2024/02/01 07:01:13;;;;;;;;;;;;;;;2.93;88.77;100665.04;137064;1276;22405;-76
2024/02/01 07:04:20;;;;;;;;;;;;;;;2.96;89.73;100665.69;137059;1276;23019;-76
2024/02/01 07:07:26;;;;;;;;;;;;;;;3.01;89.55;100666.11;137114;1276;22968;-77
2024/02/01 07:10:42;;;;;;;;;;;;;;;3.05;89.70;100671.19;137094;1276;22293;-76
2024/02/01 07:17:05;;;;;;;;;;;;;;;3.13;89.88;100675.36;137139;1272;22466;-77
2024/02/01 07:20:14;;;;;;;;;;;;;;;3.17;90.41;100674.82;137083;1276;22309;-77
2024/02/01 07:26:41;;;;;;;;;;;;;;;3.25;91.10;100666.05;137103;1276;22290;-76
2024/02/01 07:59:48;;;;;;;;;;;;;;;3.45;92.07;100681.95;137112;1276;23003;-77
2024/02/01 08:02:49;;;;;;;;;;;;;;;3.47;92.16;100682.50;137023;1276;22390;-76
2024/02/01 08:09:14;;;;;;;;;;;;;;;3.49;92.46;100682.00;136859;1273;23095;-77
2024/02/01 08:12:14;;;;;;;;;;;;;;;3.50;93.03;100678.75;137171;1276;22391;-76
2024/02/01 08:15:21;;;;;;;;;;;;;;;3.52;93.39;100677.92;137114;1276;22385;-76
2024/02/01 08:18:34;;;;;;;;;;;;;;;3.53;93.71;100682.20;136950;1272;22307;-78
2024/02/01 08:21:42;;;;;;;;;;;;;;;3.55;93.53;100683.48;137130;1276;22928;-77
2024/02/01 08:24:43;;;;;;;;;;;;;;;3.56;93.71;100688.52;137163;1276;22478;-77
2024/02/01 08:27:53;;;;;;;;;;;;;;;3.57;93.86;100687.02;137152;1276;23112;-77
2024/02/01 08:31:02;;;;;;;;;;;;;;;3.58;94.01;100686.59;137172;1276;22308;-78
2024/02/01 08:34:05;;;;;;;;;;;;;;;3.59;94.25;100686.20;137167;1276;22272;-78
2024/02/01 08:37:09;;;;;;;;;;;;;;;3.62;94.26;100689.88;137178;1276;23067;-77
2024/02/01 08:40:20;;;;;;;;;;;;;;;3.65;94.34;100691.95;137164;1271;22415;-77
2024/02/01 08:43:21;;;;;;;;;;;;;;;3.66;94.81;100693.43;137188;1276;22965;-77
2024/02/01 08:46:22;;;;;;;;;;;;;;;3.65;94.86;100699.46;137149;1276;22380;-77
2024/02/01 08:49:22;;;;;;;;;;;;;;;3.64;95.04;100698.44;137135;1276;22392;-76
2024/02/01 08:52:23;;;;;;;;;;;;;;;3.64;95.06;100701.07;137126;1276;23545;-77
2024/02/01 08:55:25;;;;;;;;;;;;;;;3.65;95.26;100697.12;137130;1271;23125;-77
2024/02/01 08:58:28;;;;;;;;;;;;;;;3.66;95.49;100698.09;137151;1276;23190;-77
2024/02/01 09:01:30;;;;;;;;;;;;;;;3.69;95.79;100700.04;137149;1276;22406;-77
2024/02/01 09:04:33;;;;;;;;;;;;;;;3.70;96.08;100696.64;137184;1276;22376;-77
2024/02/01 09:07:41;;;;;;;;;;;;;;;3.71;96.40;100702.52;137173;1276;22430;-77
2024/02/01 09:11:00;;;;;;;;;;;;;;;3.72;96.42;100705.43;137173;1272;22997;-77
2024/02/01 09:14:11;;;;;;;;;;;;;;;3.75;96.78;100705.39;137116;1276;22295;-77
2024/02/01 09:17:14;;;;;;;;;;;;;;;3.76;97.05;100704.94;137157;1276;23370;-77
2024/02/01 09:20:18;;;;;;;;;;;;;;;3.79;96.63;100705.27;137157;1275;22400;-77
2024/02/01 09:23:22;;;;;;;;;;;;;;;3.84;97.11;100708.95;136951;1276;23032;-77
2024/02/01 09:26:22;;;;;;;;;;;;;;;3.91;97.40;100712.27;137013;1276;22406;-77
2024/02/01 09:29:26;;;;;;;;;;;;;;;3.96;97.49;100710.66;137128;1276;22403;-77
2024/02/01 09:32:26;;;;;;;;;;;;;;;4.00;96.97;100711.61;136916;1276;247816;-77
2024/02/01 09:35:27;;;;;;;;;;;;;;;4.04;97.04;100713.64;137156;1273;22386;-77
2024/02/01 09:38:27;;;;;;;;;;;;;;;4.07;97.28;100718.54;137142;1276;23051;-77
2024/02/01 09:41:30;;;;;;;;;;;;;;;4.08;97.27;100723.52;137115;1274;22377;-77
2024/02/01 09:44:32;;;;;;;;;;;;;;;4.09;97.30;100725.88;137182;1276;22410;-77
2024/02/01 09:47:52;;;;;;;;;;;;;;;4.12;97.76;100722.71;137129;1276;22403;-77
2024/02/01 09:51:15;;;;;;;;;;;;;;;;;;;;;
2024/02/01 09:54:16;;;;;;;;;;;;;;;4.15;97.83;100730.67;137141;1276;22324;-77
2024/02/01 09:57:17;;;;;;;;;;;;;;;4.15;97.71;100735.94;137127;1276;22367;-77
2024/02/01 10:00:22;;;;;;;;;;;;;;;4.17;97.72;100734.93;137131;1276;22361;-77
2024/02/01 10:03:27;;;;;;;;;;;;;;;4.20;97.74;100732.96;136954;1277;23145;-78
2024/02/01 10:06:28;;;;;;;;;;;;;;;4.21;98.04;100727.42;137138;1276;22298;-78
2024/02/01 10:09:29;;;;;;;;;;;;;;;4.24;98.16;100726.53;136958;1276;22436;-78
2024/02/01 10:12:29;;;;;;;;;;;;;;;4.28;98.29;100723.26;137113;1273;22391;-78
2024/02/01 10:15:32;;;;;;;;;;;;;;;4.39;98.85;100718.23;137105;1276;22478;-78
2024/02/01 10:18:32;;;;;;;;;;;;;;;4.50;98.96;100712.77;137149;1277;22427;-78
2024/02/01 10:21:33;;;;;;;;;;;;;;;4.57;98.45;100711.73;137105;1276;22403;-78
2024/02/01 10:24:44;;;;;;;;;;;;;;;4.61;98.47;100711.55;137169;1276;22383;-77
2024/02/01 10:27:56;;;;;;;;;;;;;;;4.66;98.67;100701.35;137126;1277;23071;-76
2024/02/01 10:30:58;;;;;;;;;;;;;;;4.70;98.46;100705.09;137151;1275;22402;-79
2024/02/01 10:34:07;;;;;;;;;;;;;;;4.72;98.77;100699.69;137159;1276;22407;-76
2024/02/01 10:37:09;;;;;;;;;;;;;;;4.75;98.61;100702.28;137137;1276;22297;-77
2024/02/01 10:40:10;;;;;;;;;;;;;;;4.76;98.67;100694.69;137156;1273;22393;-78
2024/02/01 10:43:13;;;;;;;;;;;;;;;4.78;98.51;100691.20;137104;1277;22404;-76
2024/02/01 10:46:18;;;;;;;;;;;;;;;4.83;98.81;100685.55;137114;1276;22881;-76
2024/02/01 10:49:21;;;;;;;;;;;;;;;4.87;98.74;100677.22;136961;1277;22403;-75
2024/02/01 10:52:22;;;;;;;;;;;;;;;4.91;98.64;100677.61;136965;1277;22394;-76
2024/02/01 10:55:23;;;;;;;;;;;;;;;4.96;98.70;100677.04;137120;1276;22402;-75
2024/02/01 10:58:24;;;;;;;;;;;;;;;5.02;98.94;100674.99;137145;1276;22396;-77
2024/02/01 11:01:26;;;;;;;;;;;;;;;5.04;98.37;100669.08;137141;1276;22440;-78
2024/02/01 11:04:35;;;;;;;;;;;;;;;5.04;98.49;100672.39;137119;1277;22420;-78
2024/02/01 11:07:48;;;;;;;;;;;;;;;5.01;98.37;100673.51;137159;1277;22336;-78
2024/02/01 11:10:59;;;;;;;;;;;;;;;4.99;98.40;100666.48;136947;1277;22648;-78
2024/02/01 11:14:12;;;;;;;;;;;;;;;5.00;98.41;100667.85;137171;1276;22306;-78
2024/02/01 11:17:25;;;;;;;;;;;;;;;5.01;98.41;100669.81;136954;1277;22544;-78
2024/02/01 11:20:30;;;;;;;;;;;;;;;5.00;98.48;100665.85;136915;1276;22390;-78
2024/02/01 11:23:40;;;;;;;;;;;;;;;4.99;98.73;100666.84;137168;1269;22421;-78
2024/02/01 11:26:44;;;;;;;;;;;;;;;4.98;98.45;100669.17;137138;1277;22469;-78
2024/02/01 11:29:46;;;;;;;;;;;;;;;4.99;98.43;100673.13;137067;1277;22366;-78
2024/02/01 11:32:47;;;;;;;;;;;;;;;4.99;98.41;100670.17;136945;1274;22480;-78
2024/02/01 11:35:48;;;;;;;;;;;;;;;4.99;98.45;100672.13;137166;1277;22439;-79
2024/02/01 11:38:51;;;;;;;;;;;;;;;4.97;98.66;100666.66;137118;1275;22387;-78
2024/02/01 11:41:53;;;;;;;;;;;;;;;4.97;98.91;100663.32;137160;1273;22379;-79
2024/02/01 11:44:59;;;;;;;;;;;;;;;4.97;99.05;100660.70;137124;1276;22399;-78
2024/02/01 11:47:59;;;;;;;;;;;;;;;4.97;98.85;100660.70;137109;1276;22311;-78
2024/02/01 11:51:00;;;;;;;;;;;;;;;5.01;99.17;100661.44;137104;1276;22405;-78
2024/02/01 11:54:02;;;;;;;;;;;;;;;5.07;99.17;100655.69;137146;1276;22457;-78
2024/02/01 11:57:02;;;;;;;;;;;;;;;5.12;98.90;100655.14;137145;1276;22543;-78
2024/02/01 12:00:12;;;;;;;;;;;;;;;5.21;99.23;100655.64;137125;1276;22413;-78
2024/02/01 12:03:13;;;;;;;;;;;;;;;5.29;98.91;100659.92;137128;1276;22282;-78
2024/02/01 12:06:14;;;;;;;;;;;;;;;5.29;98.30;100661.02;137102;1276;23607;-79
2024/02/01 12:09:15;;;;;;;;;;;;;;;5.27;98.25;100657.64;137156;1276;22384;-79
2024/02/01 12:12:18;;;;;;;;;;;;;;;5.30;98.13;100658.30;137145;1275;23045;-78
2024/02/01 12:15:18;;;;;;;;;;;;;;;5.34;98.05;100656.53;137111;1276;23132;-78
2024/02/01 12:18:19;;;;;;;;;;;;;;;5.37;97.78;100657.73;137149;1276;22492;-79
2024/02/01 12:21:26;;;;;;;;;;;;;;;5.46;98.01;100654.00;137131;1276;22411;-79
2024/02/01 12:24:27;;;;;;;;;;;;;;;5.76;98.37;100651.09;136961;1276;22275;-79
2024/02/01 12:27:28;;;;;;;;;;;;;;;6.13;98.57;100651.52;137113;1276;22404;-77
2024/02/01 12:30:31;;;;;;;;;;;;;;;6.48;97.61;100650.77;137129;1276;22425;-79
2024/02/01 12:33:33;;;;;;;;;;;;;;;6.71;95.00;100642.70;137131;1276;22426;-78
2024/02/01 12:36:33;;;;;;;;;;;;;;;6.84;93.39;100643.73;137116;1276;22371;-79
2024/02/01 12:39:37;;;;;;;;;;;;;;;6.95;92.79;100648.17;137095;1276;22822;-79
2024/02/01 12:42:39;;;;;;;;;;;;;;;7.00;90.02;100646.78;137159;1272;22377;-78
2024/02/01 12:45:46;;;;;;;;;;;;;;;7.03;90.17;100652.59;137093;1273;22400;-78
2024/02/01 12:48:46;;;;;;;;;;;;;;;7.06;88.98;100650.84;136951;1276;22318;-78
2024/02/01 12:51:47;;;;;;;;;;;;;;;7.03;88.07;100661.77;136933;1276;22372;-78
2024/02/01 12:54:48;;;;;;;;;;;;;;;6.95;86.79;100658.63;137103;1276;22481;-77
2024/02/01 12:57:49;;;;;;;;;;;;;;;6.90;86.44;100658.34;137094;1276;22375;-82
2024/02/01 13:00:49;;;;;;;;;;;;;;;6.89;86.28;100655.42;137096;1276;22397;-81
2024/02/01 13:03:50;;;;;;;;;;;;;;;6.79;85.01;100651.73;137082;1276;22383;-81
2024/02/01 13:06:50;;;;;;;;;;;;;;;6.75;84.95;100656.91;137159;1276;23150;-81
2024/02/01 13:09:51;;;;;;;;;;;;;;;6.76;84.95;100659.50;137146;1276;22472;-82
2024/02/01 13:12:55;;;;;;;;;;;;;;;6.81;84.24;100662.25;137131;1273;22447;-81
2024/02/01 13:15:55;;;;;;;;;;;;;;;6.81;83.05;100667.17;137139;1276;22413;-81
2024/02/01 13:18:58;;;;;;;;;;;;;;;6.83;82.89;100676.70;137140;1276;23209;-81
2024/02/01 13:21:58;;;;;;;;;;;;;;;6.82;82.04;100682.94;137160;1276;22385;-82
2024/02/01 13:24:59;;;;;;;;;;;;;;;6.80;82.50;100686.23;137135;1276;23459;-81
2024/02/01 13:27:59;;;;;;;;;;;;;;;6.82;82.62;100690.30;137165;1276;22455;-81
2024/02/01 13:31:00;;;;;;;;;;;;;;;6.82;82.43;100691.91;137117;1276;22388;-81
2024/02/01 13:34:01;;;;;;;;;;;;;;;6.79;82.41;100691.09;137112;1276;22414;-81
2024/02/01 13:37:05;;;;;;;;;;;;;;;6.72;82.66;100694.78;137156;1276;22447;-81
2024/02/01 13:40:07;;;;;;;;;;;;;;;6.66;81.87;100700.79;137152;1276;22401;-82
2024/02/01 13:43:14;;;;;;;;;;;;;;;6.56;81.90;100702.98;137110;1276;22364;-81
2024/02/01 13:46:14;;;;;;;;;;;;;;;6.46;81.57;100703.10;137157;1276;23149;-81
2024/02/01 13:49:15;;;;;;;;;;;;;;;6.39;81.44;100702.65;137098;1276;22487;-81
2024/02/01 13:52:16;;;;;;;;;;;;;;;6.39;80.57;100701.61;137116;1276;23090;-81
2024/02/01 13:55:22;;;;;;;;;;;;;;;6.43;80.91;100698.08;137131;1276;22398;-81
2024/02/01 13:58:23;;;;;;;;;;;;;;;6.48;80.61;100699.13;137140;1276;22452;-79
2024/02/01 14:01:27;;;;;;;;;;;;;;;6.47;79.50;100699.51;137130;1276;22375;-82
2024/02/01 14:04:30;;;;;;;;;;;;;;;6.44;79.73;100704.19;137132;1276;22352;-81
2024/02/01 14:07:33;;;;;;;;;;;;;;;6.36;79.24;100713.45;137132;1273;22399;-81
2024/02/01 14:10:33;;;;;;;;;;;;;;;6.34;78.24;100713.94;137095;1276;22537;-81
2024/02/01 14:13:34;;;;;;;;;;;;;;;6.35;77.49;100718.13;137134;1275;23134;-82
2024/02/01 14:16:35;;;;;;;;;;;;;;;6.34;77.56;100719.61;137103;1276;22367;-80
2024/02/01 14:19:35;;;;;;;;;;;;;;;6.35;77.81;100719.70;137128;1276;22427;-81
2024/02/01 14:22:36;;;;;;;;;;;;;;;6.35;76.92;100720.07;137096;1276;22525;-79
2024/02/01 14:25:36;;;;;;;;;;;;;;;6.34;76.89;100724.19;137144;1276;23222;-81
2024/02/01 14:28:37;;;;;;;;;;;;;;;6.31;76.47;100722.83;137156;1276;23149;-81
2024/02/01 14:31:37;;;;;;;;;;;;;;;6.26;76.41;100726.84;137087;1276;22399;-80
2024/02/01 14:34:38;;;;;;;;;;;;;;;6.21;76.63;100733.44;137152;1276;22394;-81
2024/02/01 14:37:38;;;;;;;;;;;;;;;6.14;76.42;100735.73;137127;1276;22394;-80
2024/02/01 14:40:39;;;;;;;;;;;;;;;6.08;76.74;100745.35;137189;1276;22408;-82
2024/02/01 14:43:40;;;;;;;;;;;;;;;6.04;76.88;100751.83;136954;1275;22484;-81
2024/02/01 14:46:40;;;;;;;;;;;;;;;6.02;77.10;100753.24;137123;1276;23042;-82
2024/02/01 14:49:41;;;;;;;;;;;;;;;5.95;76.89;100749.08;137116;1276;23197;-81
2024/02/01 14:52:41;;;;;;;;;;;;;;;5.85;76.55;100750.69;137139;1276;22353;-81
2024/02/01 14:55:42;;;;;;;;;;;;;;;5.76;75.96;100747.34;137143;1276;22390;-81
2024/02/01 14:58:42;;;;;;;;;;;;;;;5.74;75.83;100758.70;137111;1276;23142;-81
2024/02/01 15:01:43;;;;;;;;;;;;;;;5.71;75.82;100763.16;136964;1277;23149;-82
2024/02/01 15:04:44;;;;;;;;;;;;;;;5.71;75.82;100771.80;136967;1277;22387;-81
2024/02/01 15:07:45;;;;;;;;;;;;;;;5.66;75.66;100774.80;137160;1277;22607;-82
2024/02/01 15:10:46;;;;;;;;;;;;;;;5.59;75.77;100770.23;137150;1277;22399;-82
2024/02/01 15:13:46;;;;;;;;;;;;;;;5.55;75.93;100771.94;137137;1277;23157;-82
2024/02/01 15:16:47;;;;;;;;;;;;;;;5.53;76.19;100769.64;137160;1277;22375;-82
2024/02/01 15:19:47;;;;;;;;;;;;;;;5.52;76.14;100762.94;137146;1276;22915;-82
2024/02/01 15:22:48;;;;;;;;;;;;;;;5.49;76.03;100768.41;137194;1276;22401;-81
2024/02/01 15:25:49;;;;;;;;;;;;;;;5.42;76.18;100773.83;137162;1276;23164;-82
2024/02/01 15:28:49;;;;;;;;;;;;;;;5.36;76.26;100778.52;137172;1276;22380;-82
2024/02/01 15:31:51;;;;;;;;;;;;;;;5.31;76.20;100778.02;137157;1276;23137;-82
2024/02/01 15:34:51;;;;;;;;;;;;;;;5.27;76.52;100779.61;137162;1276;23146;-82
2024/02/01 15:37:52;;;;;;;;;;;;;;;5.20;76.51;100782.41;137132;1276;22368;-82
2024/02/01 15:40:52;;;;;;;;;;;;;;;5.09;76.17;100776.52;137140;1277;22367;-79
2024/02/01 15:43:53;;;;;;;;;;;;;;;5.01;76.85;100773.81;137162;1277;22446;-83
2024/02/01 15:46:55;;;;;;;;;;;;;;;4.88;76.63;100785.61;137170;1277;23175;-82
2024/02/01 15:49:56;;;;;;;;;;;;;;;4.76;76.82;100794.77;137186;1277;22847;-82
2024/02/01 15:52:57;;;;;;;;;;;;;;;4.63;76.99;100796.94;137153;1276;22396;-82
2024/02/01 15:55:58;;;;;;;;;;;;;;;4.60;77.25;100796.45;137155;1275;22378;-82
2024/02/01 15:59:02;;;;;;;;;;;;;;;4.58;77.39;100799.25;137162;1277;22391;-82
2024/02/01 16:02:04;;;;;;;;;;;;;;;4.59;77.86;100806.32;137179;1276;23154;-81
2024/02/01 16:05:06;;;;;;;;;;;;;;;4.62;77.78;100803.85;137185;1276;22398;-78
2024/02/01 16:08:07;;;;;;;;;;;;;;;4.65;77.77;100810.52;136994;1276;22433;-78
2024/02/01 16:11:10;;;;;;;;;;;;;;;4.66;77.82;100822.46;137154;1276;22369;-78
2024/02/01 16:14:22;;;;;;;;;;;;;;;4.69;77.63;100826.96;137201;1276;23072;-78
2024/02/01 16:17:22;;;;;;;;;;;;;;;4.71;77.92;100834.23;137175;1276;23523;-78
2024/02/01 16:20:44;;;;;;;;;;;;;;;4.72;77.61;100832.70;137163;1276;22458;-77
2024/02/01 16:23:45;;;;;;;;;;;;;;;4.76;77.20;100828.08;137201;1275;22310;-77